Time;durP1;ratioP1;P1;durP2;ratioP2;P2;SDS_P1;SDS_P2;PMS_P1;PMS_P2;Temp;Humidity;BMP_temperature;BMP_pressure;BME280_temperature;BME280_humidity;BME280_pressure;Samples;Min_cycle;Max_cycle;Signal;HPM_P1;HPM_P2
2023/09/30 00:00:11;;;;;;;8.90;4.72;;;;;;;;;;4922699;29;20020;-89
2023/09/30 00:02:37;;;;;;;9.02;4.90;;;;;;;;;;4924163;29;20041;-89
2023/09/30 00:05:04;;;;;;;9.65;4.93;;;;;;;;;;4929354;29;20040;-89
2023/09/30 00:07:31;;;;;;;8.25;4.78;;;;;;;;;;4942093;29;20028;-90
2023/09/30 00:09:57;;;;;;;11.68;5.20;;;;;;;;;;4941993;29;20044;-89
2023/09/30 00:12:23;;;;;;;9.68;4.45;;;;;;;;;;4927312;29;20028;-91
2023/09/30 00:14:49;;;;;;;8.80;5.00;;;;;;;;;;4935199;29;20498;-90
2023/09/30 00:17:15;;;;;;;10.00;4.53;;;;;;;;;;4922114;29;20032;-88
2023/09/30 00:19:41;;;;;;;9.27;5.32;;;;;;;;;;4935048;29;20039;-89
2023/09/30 00:22:09;;;;;;;11.38;4.75;;;;;;;;;;4919806;29;20059;-89
2023/09/30 00:24:36;;;;;;;7.85;4.97;;;;;;;;;;4941186;29;20100;-87
2023/09/30 00:27:07;;;;;;;12.65;5.05;;;;;;;;;;4925377;29;20028;-89
2023/09/30 00:29:33;;;;;;;8.63;4.50;;;;;;;;;;4937974;29;20028;-90
2023/09/30 00:31:59;;;;;;;9.43;5.07;;;;;;;;;;4938097;29;20075;-90
2023/09/30 00:34:28;;;;;;;11.63;5.15;;;;;;;;;;4921262;29;20032;-88
2023/09/30 00:36:54;;;;;;;9.43;4.85;;;;;;;;;;4921395;29;20028;-89
2023/09/30 00:39:22;;;;;;;8.82;4.43;;;;;;;;;;4936901;29;20034;-88
2023/09/30 00:41:48;;;;;;;8.68;4.70;;;;;;;;;;4935288;29;20455;-87
2023/09/30 00:44:14;;;;;;;8.15;4.70;;;;;;;;;;4915745;29;20052;-88
2023/09/30 00:46:42;;;;;;;8.13;4.45;;;16.00;99.90;;;;;;4934420;29;20036;-88
2023/09/30 00:49:10;;;;;;;9.55;4.80;;;;;;;;;;4920777;29;20419;-89
2023/09/30 00:51:36;;;;;;;8.38;4.70;;;;;;;;;;4938031;29;20032;-87
2023/09/30 00:54:03;;;;;;;11.40;4.53;;;;;;;;;;4921139;29;20036;-90
2023/09/30 00:56:33;;;;;;;9.48;4.60;;;16.00;99.90;;;;;;4923243;29;20052;-89
2023/09/30 00:58:59;;;;;;;10.48;4.38;;;;;;;;;;4941739;28;20034;-87
2023/09/30 01:01:26;;;;;;;7.90;4.40;;;;;;;;;;4926449;29;20032;-90
2023/09/30 01:03:52;;;;;;;10.50;4.70;;;;;;;;;;4938696;29;20028;-88
2023/09/30 01:06:18;;;;;;;7.88;4.68;;;;;;;;;;4941246;29;20032;-88
2023/09/30 01:08:44;;;;;;;9.93;4.68;;;;;;;;;;4927658;29;20032;-88
2023/09/30 01:11:10;;;;;;;10.45;4.90;;;;;;;;;;4926463;29;20177;-88
2023/09/30 01:13:37;;;;;;;8.80;4.70;;;15.80;99.90;;;;;;4943175;29;20031;-86
2023/09/30 01:16:10;;;;;;;8.30;4.65;;;15.80;99.90;;;;;;4937374;29;20024;-89
2023/09/30 01:18:39;;;;;;;16.45;7.47;;;;;;;;;;4923883;29;20055;-90
2023/09/30 01:21:08;;;;;;;12.85;7.40;;;15.80;99.90;;;;;;4939587;29;20494;-89
2023/09/30 01:23:35;;;;;;;10.75;5.82;;;15.80;99.90;;;;;;4939293;29;20027;-91
2023/09/30 01:26:03;;;;;;;8.00;4.55;;;15.80;99.90;;;;;;4925717;29;20111;-88
2023/09/30 01:28:29;;;;;;;9.18;5.03;;;;;;;;;;4926609;29;20078;-89
2023/09/30 01:30:55;;;;;;;10.80;4.82;;;;;;;;;;4927299;29;20104;-89
2023/09/30 01:33:22;;;;;;;10.00;4.72;;;;;;;;;;4925874;29;20538;-89
2023/09/30 01:35:48;;;;;;;8.93;4.60;;;;;;;;;;4925512;29;20045;-87
2023/09/30 01:38:15;;;;;;;10.30;4.97;;;;;;;;;;4922454;29;20028;-89
2023/09/30 01:40:44;;;;;;;8.10;5.10;;;;;;;;;;4923913;29;20024;-87
2023/09/30 01:43:13;;;;;;;10.23;5.35;;;;;;;;;;4933347;29;20104;-88
2023/09/30 01:45:39;;;;;;;9.75;5.28;;;;;;;;;;4944291;29;20017;-87
2023/09/30 01:48:05;;;;;;;8.48;5.00;;;;;;;;;;4930198;29;20028;-87
2023/09/30 01:50:32;;;;;;;10.23;5.35;;;;;;;;;;4931674;29;20024;-88
2023/09/30 01:52:58;;;;;;;10.75;5.03;;;;;;;;;;4927993;29;20123;-88
2023/09/30 01:55:24;;;;;;;9.50;5.05;;;;;;;;;;4941316;29;20032;-88
2023/09/30 01:57:50;;;;;;;10.68;5.82;;;;;;;;;;4926194;29;20020;-88
2023/09/30 02:00:17;;;;;;;11.45;5.97;;;15.40;99.90;;;;;;4923708;29;20028;-88
2023/09/30 02:02:44;;;;;;;12.40;5.70;;;;;;;;;;4928889;29;20043;-90
2023/09/30 02:05:10;;;;;;;10.35;5.55;;;;;;;;;;4923490;29;20028;-86
2023/09/30 02:07:36;;;;;;;14.43;5.95;;;;;;;;;;4941322;29;20091;-87
2023/09/30 02:10:02;;;;;;;10.23;6.07;;;;;;;;;;4924490;29;20139;-88
2023/09/30 02:12:29;;;;;;;11.90;5.65;;;;;;;;;;4936370;29;20044;-88
2023/09/30 02:14:55;;;;;;;13.32;6.07;;;;;;;;;;4920486;29;20020;-89
2023/09/30 02:17:23;;;;;;;10.60;5.68;;;;;;;;;;4920696;29;20103;-89
2023/09/30 02:19:49;;;;;;;11.73;5.95;;;;;;;;;;4923476;29;20031;-89
2023/09/30 02:22:18;;;;;;;9.02;5.95;;;;;;;;;;4930680;29;20036;-88
2023/09/30 02:24:44;;;;;;;18.67;5.75;;;;;;;;;;4940773;29;20083;-89
2023/09/30 02:27:10;;;;;;;12.30;6.22;;;;;;;;;;4906605;29;20060;-90
2023/09/30 02:29:36;;;;;;;10.38;5.85;;;;;;;;;;4940251;29;20092;-89
2023/09/30 02:32:03;;;;;;;11.38;5.57;;;;;;;;;;4922816;29;20445;-89
2023/09/30 02:34:30;;;;;;;10.95;5.88;;;15.10;99.90;;;;;;4924043;29;20035;-87
2023/09/30 02:36:56;;;;;;;11.30;5.40;;;;;;;;;;4939900;28;20028;-87
2023/09/30 02:39:22;;;;;;;9.23;5.13;;;;;;;;;;4923269;29;20087;-88
2023/09/30 02:41:50;;;;;;;12.20;5.18;;;;;;;;;;4921699;29;20043;-89
2023/09/30 02:44:19;;;;;;;9.52;5.18;;;;;;;;;;4926066;29;20023;-89
2023/09/30 02:46:45;;;;;;;14.02;6.05;;;;;;;;;;4917182;29;20020;-88
2023/09/30 02:49:13;;;;;;;10.35;5.75;;;;;;;;;;4922515;29;20051;-92
2023/09/30 02:51:40;;;;;;;13.30;6.03;;;;;;;;;;4938176;29;20115;-87
2023/09/30 02:54:09;;;;;;;8.25;5.20;;;;;;;;;;4924904;29;20545;-90
2023/09/30 02:56:36;;;;;;;14.20;5.77;;;;;;;;;;4925781;29;20024;-89
2023/09/30 02:59:02;;;;;;;10.02;5.97;;;;;;;;;;4923696;29;20028;-89
2023/09/30 03:01:28;;;;;;;9.75;5.10;;;;;;;;;;4923653;29;20029;-89
2023/09/30 03:03:55;;;;;;;13.65;5.82;;;;;;;;;;4923394;29;20032;-89
2023/09/30 03:06:21;;;;;;;10.02;5.43;;;;;;;;;;4936216;29;20092;-89
2023/09/30 03:08:47;;;;;;;8.70;5.55;;;;;;;;;;4923277;29;20597;-88
2023/09/30 03:11:17;;;;;;;7.88;5.10;;;;;;;;;;4933965;29;20405;-89
2023/09/30 03:13:45;;;;;;;11.55;5.60;;;;;;;;;;4922644;29;20032;-89
2023/09/30 03:16:12;;;;;;;11.70;5.88;;;14.70;99.90;;;;;;4934220;29;20763;-89
2023/09/30 03:18:38;;;;;;;10.20;5.60;;;;;;;;;;4916956;29;20024;-90
2023/09/30 03:21:13;;;;;;;9.48;5.78;;;14.60;99.90;;;;;;4914219;29;20095;-89
2023/09/30 03:23:40;;;;;;;9.68;5.50;;;;;;;;;;4921119;29;20075;-90
2023/09/30 03:26:13;;;;;;;9.93;5.20;;;;;;;;;;4923484;29;20024;-91
2023/09/30 03:28:39;;;;;;;12.07;5.82;;;;;;;;;;4937606;29;20529;-90
2023/09/30 03:31:06;;;;;;;9.60;5.57;;;;;;;;;;4920166;29;20040;-90
2023/09/30 03:33:35;;;;;;;9.55;5.13;;;14.50;99.90;;;;;;4943763;29;20052;-90
2023/09/30 03:36:03;;;;;;;10.13;5.63;;;;;;;;;;4927549;29;20028;-90
2023/09/30 03:38:29;;;;;;;13.52;5.75;;;;;;;;;;4941563;29;20119;-88
2023/09/30 03:40:56;;;;;;;8.68;5.35;;;;;;;;;;4925679;29;20115;-88
2023/09/30 03:43:23;;;;;;;10.60;5.43;;;14.40;99.90;;;;;;4937204;29;20036;-90
2023/09/30 03:45:50;;;;;;;10.32;5.70;;;;;;;;;;4923377;29;20040;-89
2023/09/30 03:48:18;;;;;;;12.10;5.95;;;;;;;;;;4922185;29;20032;-89
2023/09/30 03:50:45;;;;;;;9.10;5.20;;;;;;;;;;4937244;29;20058;-89
2023/09/30 03:53:11;;;;;;;10.30;5.22;;;;;;;;;;4941891;29;20028;-89
2023/09/30 03:55:38;;;;;;;9.02;5.03;;;;;;;;;;4925556;29;20063;-91
2023/09/30 03:58:04;;;;;;;8.95;5.30;;;;;;;;;;4924111;29;20558;-88
2023/09/30 04:00:30;;;;;;;10.18;5.32;;;14.30;99.90;;;;;;4921558;29;20127;-89
2023/09/30 04:03:00;;;;;;;7.45;5.25;;;14.20;99.90;;;;;;4919642;29;20037;-90
2023/09/30 04:05:29;;;;;;;7.57;5.18;;;;;;;;;;4928497;29;20100;-88
2023/09/30 04:07:58;;;;;;;8.20;5.05;;;14.20;99.90;;;;;;4925133;29;20103;-90
2023/09/30 04:10:25;;;;;;;11.45;5.18;;;;;;;;;;4928919;29;20110;-89
2023/09/30 04:12:52;;;;;;;9.82;5.32;;;;;;;;;;4943903;29;20031;-88
2023/09/30 04:15:18;;;;;;;12.18;5.15;;;;;;;;;;4931162;29;20056;-90
2023/09/30 04:17:46;;;;;;;8.98;5.20;;;;;;;;;;4924505;29;20023;-90
2023/09/30 04:20:16;;;;;;;8.90;4.90;;;;;;;;;;4918377;29;20021;-90
2023/09/30 04:22:49;;;;;;;9.00;5.32;;;;;;;;;;4922999;29;20035;-89
2023/09/30 04:25:18;;;;;;;8.05;5.22;;;14.10;99.90;;;;;;4943956;29;20043;-90
2023/09/30 04:27:49;;;;;;;7.97;5.03;;;;;;;;;;4951126;28;20028;-90
2023/09/30 04:30:15;;;;;;;9.40;5.38;;;14.00;99.90;;;;;;4954108;29;20005;-88
2023/09/30 04:32:41;;;;;;;6.68;4.78;;;;;;;;;;4939952;29;20047;-89
2023/09/30 04:35:10;;;;;;;7.53;4.45;;;;;;;;;;4954310;28;20111;-90
2023/09/30 04:37:37;;;;;;;9.57;4.88;;;14.00;99.90;;;;;;4933743;29;20049;-90
2023/09/30 04:40:15;;;;;;;8.00;5.32;;;13.90;99.90;;;;;;4928764;29;20549;-88
2023/09/30 04:42:47;;;;;;;8.75;5.65;;;13.90;99.90;;;;;;4928608;29;20062;-89
2023/09/30 04:45:16;;;;;;;8.38;5.72;;;13.90;99.90;;;;;;4927642;29;20035;-88
2023/09/30 04:47:44;;;;;;;13.68;6.05;;;;;;;;;;4930205;29;20075;-88
2023/09/30 04:50:11;;;;;;;9.40;5.25;;;;;;;;;;4915170;29;20036;-89
2023/09/30 04:52:38;;;;;;;13.88;6.20;;;13.80;99.90;;;;;;4936927;29;20024;-88
2023/09/30 04:55:05;;;;;;;11.93;6.35;;;;;;;;;;4939923;29;20020;-88
2023/09/30 04:57:31;;;;;;;16.00;7.43;;;;;;;;;;4936637;29;20056;-88
2023/09/30 04:59:58;;;;;;;13.20;7.63;;;13.70;99.90;;;;;;4936163;29;20042;-88
2023/09/30 05:02:26;;;;;;;17.52;8.27;;;13.70;99.90;;;;;;4927432;29;20035;-90
2023/09/30 05:04:52;;;;;;;16.50;8.50;;;;;;;;;;4937862;29;20021;-89
2023/09/30 05:07:21;;;;;;;15.63;8.35;;;13.60;99.90;;;;;;4939066;29;20689;-89
2023/09/30 05:09:47;;;;;;;15.65;7.95;;;;;;;;;;4940311;29;20028;-88
2023/09/30 05:12:13;;;;;;;11.52;7.50;;;;;;;;;;4932709;29;20119;-90
2023/09/30 05:14:39;;;;;;;12.35;6.85;;;;;;;;;;4942120;29;20024;-89
2023/09/30 05:17:08;;;;;;;12.55;7.40;;;;;;;;;;4929089;29;20060;-88
2023/09/30 05:19:37;;;;;;;12.35;7.32;;;13.60;99.90;;;;;;4944792;29;20056;-88
2023/09/30 05:22:03;;;;;;;11.30;7.22;;;;;;;;;;4939757;29;20047;-89
2023/09/30 05:24:29;;;;;;;11.68;7.47;;;;;;;;;;4930018;29;20033;-91
2023/09/30 05:26:55;;;;;;;12.98;8.05;;;13.60;99.90;;;;;;4931356;29;20043;-88
2023/09/30 05:29:22;;;;;;;13.45;7.38;;;;;;;;;;4923055;29;20032;-89
2023/09/30 05:31:48;;;;;;;13.23;8.00;;;;;;;;;;4944921;29;20127;-89
2023/09/30 05:34:14;;;;;;;17.50;7.40;;;;;;;;;;4932748;29;20111;-87
2023/09/30 05:36:40;;;;;;;14.82;7.43;;;;;;;;;;4936001;29;20028;-90
2023/09/30 05:39:10;;;;;;;13.57;7.50;;;;;;;;;;4927798;29;20538;-86
2023/09/30 05:41:37;;;;;;;14.80;7.65;;;;;;;;;;4936574;29;20024;-88
2023/09/30 05:44:04;;;;;;;13.00;7.50;;;13.50;99.90;;;;;;4941730;29;20550;-86
2023/09/30 05:46:31;;;;;;;13.10;7.50;;;13.50;99.90;;;;;;4931035;29;20068;-88
2023/09/30 05:48:57;;;;;;;10.63;6.65;;;;;;;;;;4942936;28;20035;-87
2023/09/30 05:51:30;;;;;;;13.77;6.85;;;;;;;;;;4942714;29;20079;-90
2023/09/30 05:53:56;;;;;;;11.48;6.70;;;;;;;;;;4931430;28;20116;-88
2023/09/30 05:56:22;;;;;;;11.18;7.25;;;;;;;;;;4929380;29;20024;-89
2023/09/30 05:58:48;;;;;;;23.58;7.57;;;;;;;;;;4924835;29;20024;-88
2023/09/30 06:01:18;;;;;;;13.82;8.20;;;13.60;99.90;;;;;;4930532;29;20039;-89
2023/09/30 06:03:46;;;;;;;18.52;7.80;;;13.60;99.90;;;;;;4922994;29;20032;-91
2023/09/30 06:06:15;;;;;;;14.45;7.95;;;13.60;99.90;;;;;;4937538;29;20582;-89
2023/09/30 06:08:46;;;;;;;15.02;7.57;;;13.60;99.90;;;;;;4954599;28;20099;-91
2023/09/30 06:11:19;;;;;;;18.88;8.32;;;13.60;99.90;;;;;;4932962;29;20036;-89
2023/09/30 06:13:49;;;;;;;17.80;8.23;;;13.60;99.90;;;;;;4949983;29;20029;-90
2023/09/30 06:16:16;;;;;;;17.58;8.20;;;;;;;;;;4933843;29;20005;-89
2023/09/30 06:18:42;;;;;;;16.58;8.40;;;;;;;;;;4951539;28;20064;-91
2023/09/30 06:21:09;;;;;;;15.07;8.57;;;;;;;;;;4939033;28;20024;-90
2023/09/30 07:12:47;;;;;;;18.10;8.77;;;13.70;99.90;;;;;;759776;23;20320;-92
2023/09/30 07:15:16;;;;;;;22.77;9.55;;;;;;;;;;4940236;29;20033;-89
2023/09/30 07:17:43;;;;;;;18.00;10.07;;;;;;;;;;4943972;29;20032;-89
2023/09/30 07:20:09;;;;;;;19.50;8.50;;;;;;;;;;4945301;29;20056;-87
2023/09/30 07:22:36;;;;;;;18.02;9.60;;;13.80;99.90;;;;;;4934141;29;20040;-88
2023/09/30 07:25:03;;;;;;;21.38;9.77;;;;;;;;;;4909314;29;20020;-87
2023/09/30 07:27:29;;;;;;;17.75;9.82;;;;;;;;;;4925514;29;20035;-88
2023/09/30 07:29:56;;;;;;;19.40;8.98;;;13.80;99.90;;;;;;4920272;29;20028;-89
2023/09/30 07:32:24;;;;;;;18.60;9.45;;;13.80;99.90;;;;;;4920187;29;20071;-90
2023/09/30 07:34:51;;;;;;;14.13;8.63;;;;;;;;;;4923048;29;20067;-88
2023/09/30 07:37:18;;;;;;;18.90;9.20;;;;;;;;;;4922361;29;20028;-89
2023/09/30 07:39:45;;;;;;;14.27;8.57;;;;;;;;;;4919604;29;20020;-91
2023/09/30 07:42:11;;;;;;;14.73;8.80;;;;;;;;;;4921053;29;20478;-90
2023/09/30 07:44:38;;;;;;;13.40;7.97;;;14.10;99.90;;;;;;4934212;29;20040;-90
2023/09/30 07:47:06;;;;;;;14.90;7.95;;;;;;;;;;4920360;29;20032;-90
2023/09/30 07:49:32;;;;;;;15.45;7.63;;;;;;;;;;4919815;29;20039;-89
2023/09/30 07:51:58;;;;;;;13.30;8.00;;;;;;;;;;4918743;29;20024;-89
2023/09/30 07:54:24;;;;;;;16.10;8.57;;;;;;;;;;4912624;29;20117;-89
2023/09/30 07:56:50;;;;;;;13.38;8.48;;;;;;;;;;4913914;29;20024;-88
2023/09/30 07:59:19;;;;;;;13.65;8.27;;;;;;;;;;4922572;29;20024;-89
2023/09/30 08:01:45;;;;;;;14.98;8.98;;;;;;;;;;4918000;29;20030;-89
2023/09/30 08:04:13;;;;;;;16.05;9.68;;;;;;;;;;4919756;29;20115;-89
2023/09/30 08:06:42;;;;;;;13.05;8.77;;;14.40;99.90;;;;;;4930282;29;20587;-89
2023/09/30 08:09:11;;;;;;;16.33;8.85;;;;;;;;;;4947298;29;20099;-89
2023/09/30 08:11:37;;;;;;;14.00;8.20;;;;;;;;;;4930623;29;20021;-87
2023/09/30 08:14:06;;;;;;;17.58;9.48;;;14.60;99.90;;;;;;4931063;29;20036;-89
2023/09/30 08:16:33;;;;;;;11.77;7.65;;;14.60;99.90;;;;;;4946559;29;20036;-90
2023/09/30 08:18:59;;;;;;;11.85;7.38;;;;;;;;;;4923788;29;20040;-90
2023/09/30 08:21:25;;;;;;;11.02;7.28;;;;;;;;;;4919204;29;20031;-89
2023/09/30 08:23:51;;;;;;;12.45;7.43;;;;;;;;;;4935061;29;20506;-89
2023/09/30 08:26:17;;;;;;;11.05;6.60;;;;;;;;;;4918862;29;20039;-89
2023/09/30 08:28:43;;;;;;;10.00;6.47;;;;;;;;;;4934554;29;20036;-88
2023/09/30 08:31:14;;;;;;;12.60;7.43;;;15.80;99.90;;;;;;4920116;29;20036;-89
2023/09/30 08:33:43;;;;;;;9.45;6.65;;;;;;;;;;4937893;29;20029;-90
2023/09/30 08:36:18;;;;;;;10.55;6.88;;;16.00;99.90;;;;;;4921767;29;20051;-89
2023/09/30 08:38:44;;;;;;;10.50;6.10;;;;;;;;;;4919402;29;20040;-89
2023/09/30 08:41:10;;;;;;;10.35;6.35;;;;;;;;;;4916076;29;20032;-87
2023/09/30 08:43:40;;;;;;;14.55;7.00;;;16.00;99.90;;;;;;4916049;29;20114;-85
2023/09/30 08:46:06;;;;;;;10.10;6.47;;;;;;;;;;4917722;29;20040;-86
2023/09/30 08:48:33;;;;;;;9.80;6.00;;;16.20;99.90;;;;;;4933912;29;20288;-88
2023/09/30 08:51:00;;;;;;;8.55;5.32;;;16.30;99.90;;;;;;4917581;29;20028;-84
2023/09/30 08:53:28;;;;;;;9.77;5.70;;;16.30;99.90;;;;;;4921826;29;20099;-86
2023/09/30 08:55:55;;;;;;;9.35;5.25;;;16.50;99.90;;;;;;4939562;29;20028;-88
2023/09/30 08:58:28;;;;;;;10.52;5.53;;;16.80;99.90;;;;;;4930895;29;20048;-87
2023/09/30 09:00:54;;;;;;;10.07;5.00;;;16.70;99.90;;;;;;4916467;29;20123;-88
2023/09/30 09:03:20;;;;;;;7.47;4.65;;;;;;;;;;4929565;29;20849;-89
2023/09/30 09:05:56;;;;;;;9.32;4.82;;;17.10;99.90;;;;;;4916121;29;20055;-88
2023/09/30 09:08:24;;;;;;;8.70;4.28;;;17.20;99.90;;;;;;4917218;29;20028;-83
2023/09/30 09:10:58;;;;;;;8.35;4.90;;;17.30;99.90;;;;;;4917606;29;20035;-86
2023/09/30 09:13:25;;;;;;;9.07;5.55;;;17.60;99.90;;;;;;4920643;29;20024;-87
2023/09/30 09:16:06;;;;;;;7.10;4.20;;;17.60;99.90;;;;;;4922235;29;20051;-82
2023/09/30 09:18:33;;;;;;;7.55;3.95;;;17.90;99.90;;;;;;4915480;29;20027;-89
2023/09/30 09:21:13;;;;;;;6.70;4.18;;;17.70;99.90;;;;;;4905142;29;20032;-86
2023/09/30 09:23:45;;;;;;;7.55;3.90;;;17.70;99.90;;;;;;4933341;29;20421;-88
2023/09/30 09:26:13;;;;;;;6.65;3.85;;;17.70;99.90;;;;;;4919838;29;20040;-87
2023/09/30 09:28:39;;;;;;;7.78;3.50;;;17.80;99.90;;;;;;4932559;29;20399;-87
2023/09/30 09:31:28;;;;;;;6.35;3.83;;;17.90;99.90;;;;;;4935527;29;20038;-87
2023/09/30 09:33:53;;;;;;;10.15;3.85;;;18.10;99.90;;;;;;4918704;29;20154;-85
2023/09/30 09:36:19;;;;;;;6.32;3.50;;;18.30;99.90;;;;;;4938050;29;20052;-85
2023/09/30 09:38:54;;;;;;;7.22;3.35;;;18.50;99.90;;;;;;4917637;29;20828;-85
2023/09/30 09:41:20;;;;;;;8.35;3.38;;;;;;;;;;4924873;29;20032;-87
2023/09/30 09:43:50;;;;;;;5.60;3.25;;;18.60;99.90;;;;;;4919190;29;20048;-88
2023/09/30 09:46:17;;;;;;;7.75;3.83;;;18.80;99.90;;;;;;4934286;29;20139;-87
2023/09/30 09:48:46;;;;;;;6.93;3.20;;;18.80;99.90;;;;;;4935800;29;20040;-88
2023/09/30 09:51:14;;;;;;;6.40;3.10;;;18.90;99.90;;;;;;4922263;29;20032;-86
2023/09/30 09:53:41;;;;;;;7.63;3.35;;;18.80;99.90;;;;;;4920689;29;20032;-88
2023/09/30 09:56:11;;;;;;;6.68;3.15;;;16.70;99.90;;;;;;4934213;29;20032;-87
2023/09/30 09:58:38;;;;;;;8.90;3.80;;;;;;;;;;4917522;29;20020;-89
2023/09/30 10:01:08;;;;;;;6.50;3.30;;;19.00;99.90;;;;;;4918651;29;20047;-87
2023/09/30 10:03:34;;;;;;;8.10;3.38;;;;;;;;;;4932206;29;20033;-87
2023/09/30 10:06:00;;;;;;;7.35;3.40;;;;;;;;;;4918081;29;20451;-84
2023/09/30 10:08:34;;;;;;;7.07;3.08;;;19.50;99.90;;;;;;4933586;28;20050;-87
2023/09/30 10:11:01;;;;;;;5.75;2.83;;;19.50;99.90;;;;;;4932556;29;20117;-86
2023/09/30 10:13:56;;;;;;;6.80;3.33;;;19.70;99.90;;;;;;4917963;29;20040;-88
2023/09/30 10:16:37;;;;;;;8.20;3.53;;;19.70;99.90;;;;;;4931798;29;20028;-84
2023/09/30 10:19:24;;;;;;;9.10;3.03;;;19.70;99.90;;;;;;4916223;29;20028;-85
2023/09/30 10:22:21;;;;;;;7.55;3.17;;;19.90;99.90;;;;;;4931331;29;20050;-87
2023/09/30 10:24:48;;;;;;;9.13;3.50;;;;;;;;;;4910483;29;20928;-86
2023/09/30 10:27:33;;;;;;;7.22;3.10;;;20.20;99.90;;;;;;4929329;29;20048;-86
2023/09/30 10:30:13;;;;;;;8.55;3.13;;;20.20;99.90;;;;;;4927423;29;20043;-86
2023/09/30 10:32:51;;;;;;;7.60;3.55;;;21.60;99.90;;;;;;4915834;29;20109;-86
2023/09/30 10:35:18;;;;;;;6.55;3.03;;;20.40;99.90;;;;;;4911561;29;20044;-88
2023/09/30 10:37:44;;;;;;;8.55;3.60;;;;;;;;;;4912182;29;20024;-87
2023/09/30 10:40:29;;;;;;;8.35;4.03;;;20.00;99.90;;;;;;4914902;29;20498;-88
2023/09/30 10:42:56;;;;;;;9.13;4.00;;;20.00;99.90;;;;;;4929368;29;20040;-88
2023/09/30 10:45:42;;;;;;;8.80;3.70;;;19.90;99.90;;;;;;4917104;29;20145;-86
2023/09/30 10:48:32;;;;;;;9.02;3.67;;;20.00;99.90;;;;;;4917122;29;20083;-88
2023/09/30 10:51:00;;;;;;;10.70;4.30;;;20.00;99.90;;;;;;4932396;29;20347;-88
2023/09/30 10:53:30;;;;;;;14.43;7.70;;;;;;;;;;4915003;29;20144;-85
2023/09/30 10:56:00;;;;;;;8.90;3.80;;;20.20;99.90;;;;;;4909775;29;20048;-86
2023/09/30 10:58:49;;;;;;;9.98;4.28;;;20.10;99.90;;;;;;4930908;29;20231;-87
2023/09/30 11:01:21;;;;;;;8.60;4.03;;;20.10;99.90;;;;;;4914379;29;20111;-88
2023/09/30 11:03:50;;;;;;;8.45;3.95;;;20.00;99.90;;;;;;4923730;29;20032;-89
2023/09/30 11:06:19;;;;;;;9.20;4.65;;;20.00;99.90;;;;;;4918796;29;20099;-86
2023/09/30 11:08:56;;;;;;;8.95;4.70;;;19.90;99.90;;;;;;4914931;29;20036;-88
2023/09/30 11:11:54;;;;;;;9.38;3.70;;;19.80;99.90;;;;;;4937146;29;21063;-87
2023/09/30 11:14:31;;;;;;;9.93;4.38;;;19.70;99.90;;;;;;4908834;29;20072;-86
2023/09/30 11:17:03;;;;;;;11.90;3.95;;;19.70;99.90;;;;;;4940151;29;20029;-86
2023/09/30 11:19:37;;;;;;;9.48;3.83;;;18.40;99.90;;;;;;4915667;29;20070;-85
2023/09/30 11:22:03;;;;;;;10.05;4.40;;;19.80;99.90;;;;;;4931868;29;20025;-86
2023/09/30 11:24:29;;;;;;;9.57;4.57;;;19.90;99.90;;;;;;4928741;29;20047;-86
2023/09/30 11:26:58;;;;;;;9.20;4.38;;;;;;;;;;4919496;29;20040;-87
2023/09/30 11:29:26;;;;;;;10.60;4.47;;;20.20;99.90;;;;;;4918383;29;20307;-86
2023/09/30 11:31:52;;;;;;;7.97;4.43;;;;;;;;;;4903586;29;20036;-83
2023/09/30 11:34:35;;;;;;;11.68;4.65;;;20.50;99.90;;;;;;4932895;29;20084;-84
2023/09/30 11:37:02;;;;;;;9.98;5.03;;;20.50;99.90;;;;;;4881481;29;20056;-86
2023/09/30 11:39:30;;;;;;;9.75;4.95;;;20.60;99.90;;;;;;4909154;29;20043;-88
2023/09/30 11:41:57;;;;;;;11.63;5.43;;;;;;;;;;4926009;29;20040;-86
2023/09/30 11:44:26;;;;;;;12.07;4.72;;;20.70;99.90;;;;;;4907356;29;21493;-85
2023/09/30 11:47:00;;;;;;;10.25;4.82;;;20.90;99.90;;;;;;4929997;29;20035;-86
2023/09/30 11:49:29;;;;;;;12.02;5.43;;;21.10;99.90;;;;;;4924878;29;20043;-87
2023/09/30 11:51:57;;;;;;;11.50;4.38;;;21.20;99.90;;;;;;4912415;29;20028;-85
2023/09/30 11:54:27;;;;;;;12.48;5.00;;;21.00;99.90;;;;;;4924602;29;20032;-86
2023/09/30 11:56:53;;;;;;;10.82;5.03;;;21.10;99.90;;;;;;4911587;29;20032;-84
2023/09/30 11:59:19;;;;;;;10.00;4.10;;;21.20;99.90;;;;;;4910916;29;20039;-87
2023/09/30 12:01:48;;;;;;;10.93;4.80;;;21.30;99.90;;;;;;4927401;29;20028;-85
2023/09/30 12:04:17;;;;;;;10.40;4.90;;;21.40;99.90;;;;;;4909428;29;20036;-87
2023/09/30 12:06:43;;;;;;;13.75;5.50;;;;;;;;;;4911583;29;20039;-84
2023/09/30 12:09:13;;;;;;;9.63;4.60;;;21.50;99.90;;;;;;4903966;29;20035;-83
2023/09/30 12:11:39;;;;;;;11.20;5.30;;;;;;;;;;4910678;29;20033;-86
2023/09/30 12:14:06;;;;;;;12.25;4.97;;;;;;;;;;4916143;29;20047;-86
2023/09/30 12:16:32;;;;;;;12.57;5.40;;;;;;;;;;4934247;29;20024;-86
2023/09/30 12:18:58;;;;;;;10.15;4.70;;;;;;;;;;4912782;29;20031;-87
2023/09/30 12:21:24;;;;;;;12.32;5.82;;;;;;;;;;4918569;29;20024;-84
2023/09/30 12:23:53;;;;;;;11.48;5.28;;;;;;;;;;4910363;29;20036;-85
2023/09/30 12:26:19;;;;;;;14.13;5.40;;;;;;;;;;4925528;29;20055;-87
2023/09/30 12:28:48;;;;;;;11.07;4.63;;;21.10;99.90;;;;;;4916801;29;20028;-86
2023/09/30 12:31:15;;;;;;;10.65;4.97;;;;;;;;;;4932340;29;20036;-85
2023/09/30 12:33:41;;;;;;;9.48;4.32;;;;;;;;;;4920177;29;20047;-84
2023/09/30 12:36:07;;;;;;;10.68;4.50;;;;;;;;;;4921605;29;20020;-88
2023/09/30 12:38:33;;;;;;;9.82;4.85;;;21.30;99.90;;;;;;4913747;29;20032;-85
2023/09/30 12:41:00;;;;;;;10.95;4.88;;;;;;;;;;4914909;29;20510;-85
2023/09/30 12:43:26;;;;;;;10.73;4.90;;;;;;;;;;4927320;28;20076;-88
2023/09/30 12:45:52;;;;;;;14.48;5.18;;;;;;;;;;4911189;29;20042;-85
2023/09/30 12:48:18;;;;;;;11.73;5.15;;;;;;;;;;4910671;29;20427;-87
2023/09/30 12:50:44;;;;;;;13.50;5.38;;;21.70;99.90;;;;;;4921033;29;20028;-86
2023/09/30 12:53:10;;;;;;;13.50;5.03;;;;;;;;;;4944245;29;20040;-85
2023/09/30 12:55:36;;;;;;;10.43;4.97;;;;;;;;;;4946358;29;20080;-88
2023/09/30 12:58:03;;;;;;;10.50;5.18;;;;;;;;;;4933080;29;20046;-85
2023/09/30 13:00:32;;;;;;;11.77;5.32;;;;;;;;;;4938658;29;20025;-86
2023/09/30 13:03:00;;;;;;;13.48;5.25;;;22.10;99.90;;;;;;4925323;29;20032;-87
2023/09/30 13:05:29;;;;;;;12.35;5.38;;;22.10;99.90;;;;;;4925431;29;20040;-87
2023/09/30 13:07:55;;;;;;;10.73;4.78;;;;;;;;;;4937288;29;20043;-85
2023/09/30 13:10:22;;;;;;;10.82;5.38;;;;;;;;;;4922970;29;21323;-85
2023/09/30 13:12:53;;;;;;;10.68;4.72;;;;;;;;;;4924389;29;20040;-86
2023/09/30 13:15:19;;;;;;;15.75;5.45;;;;;;;;;;4924488;29;20035;-87
2023/09/30 13:17:45;;;;;;;11.07;5.10;;;22.10;99.90;;;;;;4927627;29;20035;-86
2023/09/30 13:20:11;;;;;;;12.02;4.68;;;;;;;;;;4938909;29;20032;-87
2023/09/30 13:22:40;;;;;;;12.80;5.60;;;19.30;99.40;;;;;;4937058;29;20067;-84
2023/09/30 13:25:08;;;;;;;12.75;5.18;;;22.20;99.90;;;;;;4938161;29;20032;-87
2023/09/30 13:27:34;;;;;;;10.25;5.03;;;22.20;99.90;;;;;;4920594;29;20036;-87
2023/09/30 13:30:03;;;;;;;12.15;5.38;;;22.30;99.50;;;;;;4920320;29;20063;-88
2023/09/30 13:32:39;;;;;;;;;;;;;;;;;;;;;
2023/09/30 13:35:09;;;;;;;14.27;5.47;;;22.30;99.30;;;;;;4918037;29;20092;-89
2023/09/30 13:37:35;;;;;;;10.88;5.00;;;;;;;;;;4935459;29;20028;-86
2023/09/30 13:40:02;;;;;;;12.48;5.15;;;22.30;98.90;;;;;;4917205;29;20043;-86
2023/09/30 13:42:28;;;;;;;11.40;4.80;;;;;;;;;;4925432;29;20042;-87
2023/09/30 13:44:57;;;;;;;10.82;5.20;;;;;;;;;;4922909;29;20044;-86
2023/09/30 13:47:23;;;;;;;12.07;5.18;;;;;;;;;;4921380;29;20452;-87
2023/09/30 13:49:49;;;;;;;11.50;4.93;;;;;;;;;;4937429;29;20102;-87
2023/09/30 13:52:15;;;;;;;11.77;4.88;;;22.20;98.80;;;;;;4922209;29;20032;-85
2023/09/30 13:54:55;;;;;;;11.32;5.13;;;25.10;99.90;;;;;;4924833;29;20080;-85
2023/09/30 13:57:21;;;;;;;9.98;5.00;;;;;;;;;;4946665;29;20028;-85
2023/09/30 13:59:48;;;;;;;10.90;5.63;;;;;;;;;;4929009;29;20084;-86
2023/09/30 14:02:14;;;;;;;10.80;5.63;;;;;;;;;;4934578;29;20032;-84
2023/09/30 14:04:40;;;;;;;11.93;5.78;;;;;;;;;;4920236;29;20063;-86
2023/09/30 14:07:07;;;;;;;10.68;5.57;;;;;;;;;;4935501;29;20092;-87
2023/09/30 14:09:34;;;;;;;12.70;5.65;;;;;;;;;;4939093;29;20029;-87
2023/09/30 14:12:00;;;;;;;10.38;5.30;;;;;;;;;;4927141;29;20052;-84
2023/09/30 14:14:26;;;;;;;14.18;6.00;;;;;;;;;;4925111;29;20040;-87
2023/09/30 14:16:52;;;;;;;12.23;5.07;;;;;;;;;;4917240;29;20032;-86
2023/09/30 14:19:18;;;;;;;9.48;4.88;;;;;;;;;;4923688;29;20036;-84
2023/09/30 14:21:45;;;;;;;16.08;6.20;;;;;;;;;;4921085;29;20032;-85
2023/09/30 14:24:11;;;;;;;11.88;5.20;;;;;;;;;;4923453;29;20052;-84
2023/09/30 14:26:39;;;;;;;11.07;4.97;;;;;;;;;;4937119;29;20040;-83
2023/09/30 14:29:05;;;;;;;10.15;5.22;;;;;;;;;;4931095;29;20016;-85
2023/09/30 14:31:31;;;;;;;10.25;4.82;;;;;;;;;;4918584;29;20131;-86
2023/09/30 14:34:26;;;;;;;10.30;4.88;;;22.10;98.30;;;;;;4918077;29;20035;-85
2023/09/30 14:36:52;;;;;;;10.00;5.03;;;22.10;98.20;;;;;;4923040;29;20036;-86
2023/09/30 14:39:18;;;;;;;11.38;4.88;;;22.00;98.60;;;;;;4923920;29;20020;-87
2023/09/30 14:41:44;;;;;;;10.63;4.80;;;;;;;;;;4936130;29;20501;-86